createdAt,value
2022-10-11T00:00:49.085Z,48.49
2022-10-11T00:05:48.272Z,48.60
2022-10-11T00:10:48.431Z,48.79
2022-10-11T00:15:47.740Z,48.99
2022-10-11T00:20:46.068Z,49.32
2022-10-11T00:25:45.284Z,49.41
2022-10-11T00:30:44.387Z,49.09
2022-10-11T00:35:43.714Z,48.99
2022-10-11T00:40:43.878Z,49.64
2022-10-11T00:45:44.217Z,49.94
2022-10-11T00:50:42.525Z,49.41
2022-10-11T00:55:40.844Z,48.69
2022-10-11T01:00:40.157Z,48.37
2022-10-11T01:05:39.490Z,47.65
2022-10-11T01:10:40.775Z,47.42
2022-10-11T01:15:38.054Z,47.65
2022-10-11T01:20:37.377Z,47.03
2022-10-11T01:25:36.681Z,45.98
2022-10-11T01:30:36.994Z,45.56
2022-10-11T01:35:36.309Z,45.59
2022-10-11T01:40:35.664Z,45.89
2022-10-11T01:45:34.794Z,46.08
2022-10-11T01:50:33.076Z,46.08
2022-10-11T01:55:32.391Z,46.20
2022-10-11T02:00:32.710Z,48.14
2022-10-11T02:05:32.043Z,49.19
2022-10-11T02:10:30.344Z,48.87
2022-10-11T02:15:29.635Z,49.07
2022-10-11T02:20:28.939Z,49.49
2022-10-11T02:25:28.247Z,49.69
2022-10-11T02:30:27.581Z,49.90
2022-10-11T02:35:27.007Z,50.02
2022-10-11T02:40:26.335Z,50.02
2022-10-11T02:45:25.661Z,49.49
2022-10-11T02:50:24.817Z,48.37
2022-10-11T02:55:25.094Z,48.27
2022-10-11T03:00:23.439Z,48.27
2022-10-11T03:05:23.543Z,48.27
2022-10-11T03:10:21.915Z,48.37
2022-10-11T03:15:22.024Z,47.67
2022-10-11T03:20:20.342Z,47.45
2022-10-11T03:25:20.615Z,47.25
2022-10-11T03:30:20.923Z,47.57
2022-10-11T03:35:18.225Z,48.82
2022-10-11T03:40:17.564Z,47.87
2022-10-11T03:45:18.879Z,47.45
2022-10-11T03:50:16.184Z,47.47
2022-10-11T03:55:15.542Z,47.35
2022-10-11T04:00:14.693Z,47.25
2022-10-11T04:05:13.847Z,47.45
2022-10-11T04:10:12.944Z,48.19
2022-10-11T04:15:13.249Z,47.97
2022-10-11T04:20:12.397Z,47.77
2022-10-11T04:25:10.513Z,47.77
2022-10-11T04:30:10.873Z,47.77
2022-10-11T04:35:09.021Z,47.37
2022-10-11T04:40:09.194Z,48.10
2022-10-11T04:45:07.321Z,48.19
2022-10-11T04:50:06.453Z,47.77
2022-10-11T04:55:05.775Z,47.47
2022-10-11T05:00:05.104Z,47.79
2022-10-11T05:05:05.392Z,47.47
2022-10-11T05:10:03.724Z,46.85
2022-10-11T05:15:02.938Z,47.05
2022-10-11T05:20:03.086Z,47.47
2022-10-11T05:25:01.403Z,47.89
2022-10-11T05:30:00.759Z,47.79
2022-10-11T05:34:59.889Z,47.37
2022-10-11T05:39:59.056Z,46.95
2022-10-11T05:44:59.375Z,46.55
2022-10-11T05:49:58.637Z,45.51
2022-10-11T05:54:59.916Z,45.10
2022-10-11T05:59:57.178Z,44.69
2022-10-11T06:04:55.464Z,44.38
2022-10-11T06:09:54.744Z,43.97
2022-10-11T06:14:55.033Z,44.89
2022-10-11T06:19:53.326Z,44.99
2022-10-11T06:24:52.645Z,45.29
2022-10-11T06:29:51.942Z,45.31
2022-10-11T06:34:51.251Z,45.29
2022-10-11T06:39:50.586Z,45.51
2022-10-11T06:44:49.921Z,46.20
2022-10-11T06:49:51.051Z,46.23
2022-10-11T06:54:48.363Z,46.43
2022-10-11T06:59:48.668Z,46.62
2022-10-11T07:04:47.029Z,46.11
2022-10-11T07:09:47.129Z,45.90
2022-10-11T07:14:46.485Z,46.08
2022-10-11T07:19:47.701Z,46.08
2022-10-11T07:24:44.825Z,46.08
2022-10-11T07:29:43.143Z,45.98
2022-10-11T07:34:42.466Z,45.89
2022-10-11T07:39:41.760Z,46.38
2022-10-11T07:44:42.066Z,46.91
2022-10-11T07:49:40.357Z,48.45
2022-10-11T07:54:39.666Z,50.07
2022-10-11T07:59:39.989Z,50.27
2022-10-11T08:04:40.316Z,49.77
2022-10-11T08:09:37.626Z,49.57
2022-10-11T08:14:37.930Z,49.27
2022-10-11T08:19:38.090Z,48.55
2022-10-11T08:24:38.310Z,48.55
2022-10-11T08:29:34.417Z,48.97
2022-10-11T08:34:34.725Z,48.75
2022-10-11T08:39:34.055Z,48.67
2022-10-11T08:44:51.816Z,49.49
2022-10-11T08:49:33.524Z,49.29
2022-10-11T08:54:30.799Z,48.97
2022-10-11T08:59:31.198Z,48.55
2022-10-11T09:04:29.275Z,48.14
2022-10-11T09:09:31.668Z,47.83
2022-10-11T09:14:27.759Z,47.30
2022-10-11T09:19:28.085Z,46.78
2022-10-11T09:24:28.424Z,46.28
2022-10-11T09:29:25.747Z,46.36
2022-10-11T09:34:25.899Z,46.36
2022-10-11T09:39:25.000Z,45.76
2022-10-11T09:44:25.307Z,45.34
2022-10-11T09:49:22.753Z,44.12
2022-10-11T09:54:21.941Z,43.41
2022-10-11T09:59:21.061Z,43.60
2022-10-11T10:04:20.376Z,43.41
2022-10-11T10:09:21.850Z,43.51
2022-10-11T10:14:19.976Z,43.41
2022-10-11T10:19:18.460Z,43.80
2022-10-11T10:24:17.541Z,44.20
2022-10-11T10:29:16.856Z,44.23
2022-10-11T10:34:17.152Z,44.53
2022-10-11T10:39:16.467Z,44.62
2022-10-11T10:44:14.793Z,44.31
2022-10-11T10:49:52.593Z,44.31
2022-10-11T10:54:13.096Z,43.90
2022-10-11T10:59:12.437Z,44.31
2022-10-11T11:04:11.852Z,44.40
2022-10-11T11:09:10.962Z,44.20
2022-10-11T11:14:10.272Z,44.70
2022-10-11T11:19:09.618Z,44.40
2022-10-11T11:24:10.755Z,45.32
2022-10-11T11:29:08.883Z,44.90
2022-10-11T11:34:07.256Z,45.32
2022-10-11T11:39:06.381Z,45.20
2022-10-11T11:44:06.724Z,45.20
2022-10-11T11:49:07.625Z,45.82
2022-10-11T11:54:05.311Z,46.00
2022-10-11T11:59:03.636Z,45.82
2022-10-11T12:04:04.972Z,46.42
2022-10-11T12:09:02.276Z,47.21
2022-10-11T12:14:01.720Z,46.42
2022-10-11T12:19:00.824Z,47.61
2022-10-11T12:24:02.175Z,48.31
2022-10-11T12:29:00.474Z,47.51
2022-10-11T12:33:58.778Z,46.64
2022-10-11T12:38:58.080Z,48.73
2022-10-11T12:43:57.398Z,48.03
2022-10-11T12:48:59.826Z,48.23
2022-10-11T12:54:21.612Z,48.33
2022-10-11T12:58:55.109Z,48.63
2022-10-11T13:03:54.421Z,47.91
2022-10-11T13:08:54.705Z,47.99
2022-10-11T13:13:55.016Z,47.69
2022-10-11T13:18:52.334Z,47.37
2022-10-11T13:23:51.658Z,47.27
2022-10-11T13:28:53.015Z,47.27
2022-10-11T13:33:51.305Z,47.89
2022-10-11T13:38:51.609Z,48.19
2022-10-11T13:43:50.932Z,48.08
2022-10-11T13:48:49.227Z,48.08
2022-10-11T13:53:47.536Z,48.31
2022-10-11T13:58:46.846Z,48.71
2022-10-11T14:03:48.196Z,48.91
2022-10-11T14:08:45.519Z,48.73
2022-10-11T14:13:44.654Z,48.93
2022-10-11T14:18:44.968Z,49.35
2022-10-11T14:23:44.616Z,49.25
2022-10-11T14:28:43.590Z,49.45
2022-10-11T14:33:41.940Z,48.95
2022-10-11T14:38:43.111Z,49.25
2022-10-11T14:43:40.234Z,49.65
2022-10-11T14:48:55.063Z,49.85
2022-10-11T14:53:40.957Z,49.87
2022-10-11T14:58:38.771Z,50.47
2022-10-11T15:03:38.093Z,50.27
2022-10-11T15:08:36.428Z,50.87
2022-10-11T15:13:36.720Z,51.17
2022-10-11T15:18:36.100Z,51.20
2022-10-11T15:23:34.211Z,51.79
2022-10-11T15:28:34.561Z,51.22
2022-10-11T15:33:32.680Z,51.82
2022-10-11T15:38:31.976Z,51.62
2022-10-11T15:43:31.446Z,52.04
2022-10-11T15:48:31.560Z,52.25
2022-10-11T15:53:29.871Z,52.25
2022-10-11T15:58:30.164Z,52.04
2022-10-11T16:03:29.495Z,52.04
2022-10-11T16:08:27.601Z,49.87
2022-10-11T16:14:08.928Z,49.55
2022-10-11T16:18:31.254Z,48.95
2022-10-11T16:23:25.390Z,49.05
2022-10-11T16:28:24.595Z,48.73
2022-10-11T16:33:24.783Z,48.63
2022-10-11T16:38:22.916Z,48.53
2022-10-11T16:43:23.200Z,49.05
2022-10-11T16:48:21.488Z,49.87
2022-10-11T16:53:21.918Z,50.40
2022-10-11T16:58:20.979Z,50.60
2022-10-11T17:03:19.268Z,50.92
2022-10-11T17:08:19.587Z,50.82
2022-10-11T17:13:17.991Z,51.42
2022-10-11T17:18:16.233Z,51.72
2022-10-11T17:23:17.322Z,52.34
2022-10-11T17:28:17.911Z,52.67
2022-10-11T17:33:14.854Z,52.97
2022-10-11T17:38:16.333Z,53.37
2022-10-11T17:43:13.749Z,53.39
2022-10-11T17:48:13.707Z,53.89
2022-10-11T17:53:11.884Z,54.19
2022-10-11T17:58:12.079Z,54.29
2022-10-11T18:03:11.335Z,54.62
2022-10-11T18:08:09.471Z,54.52
2022-10-11T18:13:12.015Z,54.52
2022-10-11T18:18:09.104Z,54.62
2022-10-11T18:23:08.220Z,54.92
2022-10-11T18:28:06.786Z,55.35
2022-10-11T18:33:06.760Z,55.22
2022-10-11T18:38:06.104Z,55.98
2022-10-11T18:43:05.173Z,56.17
2022-10-11T18:48:03.439Z,54.52
2022-10-11T18:58:03.256Z,54.29
2022-10-11T19:03:02.178Z,53.89
2022-10-11T19:08:02.656Z,52.97
2022-10-11T19:13:00.971Z,53.57
2022-10-11T19:18:00.008Z,53.27
2022-10-11T19:22:58.246Z,52.74
2022-10-11T19:27:57.410Z,53.47
2022-10-11T19:32:58.590Z,53.79
2022-10-11T19:37:56.106Z,53.99
2022-10-11T19:42:54.972Z,53.79
2022-10-11T19:47:55.406Z,54.29
2022-10-11T19:52:53.463Z,53.99
2022-10-11T19:57:52.676Z,53.89
2022-10-11T20:02:53.062Z,54.52
2022-10-11T20:07:51.022Z,54.12
2022-10-11T20:12:51.227Z,54.94
2022-10-11T20:17:50.415Z,55.05
2022-10-11T20:22:48.615Z,54.85
2022-10-11T20:27:47.874Z,53.82
2022-10-11T20:32:47.125Z,54.22
2022-10-11T20:37:47.357Z,54.12
2022-10-11T20:42:45.560Z,54.22
2022-10-11T20:47:44.777Z,53.89
2022-10-11T20:52:44.999Z,53.79
2022-10-11T20:57:43.187Z,52.99
2022-10-11T21:02:42.364Z,53.49
2022-10-11T21:07:42.586Z,53.59
2022-10-11T21:12:40.758Z,54.32
2022-10-11T21:17:39.963Z,54.35
2022-10-11T21:22:39.155Z,54.85
2022-10-11T21:27:40.412Z,53.92
2022-10-11T21:32:38.597Z,53.94
2022-10-11T21:37:37.811Z,53.42
2022-10-11T21:42:36.388Z,54.44
2022-10-11T21:47:39.034Z,55.57
2022-10-11T21:52:34.790Z,54.44
2022-10-11T21:57:34.715Z,54.44
2022-10-11T22:02:33.044Z,53.92
2022-10-11T22:07:33.245Z,53.49
2022-10-11T22:12:31.419Z,53.59
2022-10-11T22:17:30.622Z,53.79
2022-10-11T22:22:30.839Z,52.47
2022-10-11T22:27:30.055Z,53.49
2022-10-11T22:32:28.213Z,53.59
2022-10-11T22:37:28.399Z,54.02
2022-10-11T22:42:29.592Z,54.55
2022-10-11T22:47:27.784Z,54.74
2022-10-11T22:52:24.956Z,54.74
2022-10-11T22:57:25.154Z,54.87
2022-10-11T23:02:23.363Z,54.87
2022-10-11T23:07:22.561Z,55.17
2022-10-11T23:12:21.780Z,54.94
2022-10-11T23:17:22.035Z,53.72
2022-10-11T23:22:20.209Z,52.89
2022-10-11T23:27:19.401Z,52.47
2022-10-11T23:32:18.591Z,50.79
2022-10-11T23:37:18.783Z,50.70
2022-10-11T23:42:16.965Z,51.32
2022-10-11T23:47:17.142Z,52.77
2022-10-11T23:52:15.316Z,52.64
2022-10-11T23:57:15.485Z,52.97
